Time;durP1;ratioP1;P1;durP2;ratioP2;P2;SDS_P1;SDS_P2;PMS_P1;PMS_P2;Temp;Humidity;BMP_temperature;BMP_pressure;BME280_temperature;BME280_humidity;BME280_pressure;Samples;Min_cycle;Max_cycle;Signal;HPM_P1;HPM_P2
2023/08/15 00:02:14;;;;;;;4.75;3.20;;;18.50;99.90;;;;;;5024933;28;20119;-83
2023/08/15 00:04:40;;;;;;;2.80;2.60;;;18.50;99.90;;;;;;5019954;28;20014;-83
2023/08/15 00:07:05;;;;;;;5.78;3.55;;;18.50;99.90;;;;;;5025423;28;20021;-82
2023/08/15 00:09:31;;;;;;;4.47;3.00;;;18.40;99.90;;;;;;5013404;28;20097;-82
2023/08/15 00:11:57;;;;;;;4.93;3.05;;;18.40;99.90;;;;;;5016172;28;20032;-82
2023/08/15 00:14:23;;;;;;;4.63;3.10;;;18.40;99.90;;;;;;5019571;28;20048;-82
2023/08/15 00:16:48;;;;;;;5.47;3.85;;;18.40;99.90;;;;;;5020866;28;20022;-83
2023/08/15 00:19:14;;;;;;;5.20;3.30;;;18.40;99.90;;;;;;5020850;28;20021;-83
2023/08/15 00:21:40;;;;;;;5.72;3.85;;;18.40;99.90;;;;;;5019532;28;20060;-82
2023/08/15 00:24:05;;;;;;;6.05;3.63;;;18.40;99.90;;;;;;5020292;28;20503;-82
2023/08/15 00:26:31;;;;;;;3.78;2.85;;;18.40;99.90;;;;;;5024172;28;20026;-82
2023/08/15 00:28:58;;;;;;;8.90;3.55;;;18.40;99.90;;;;;;5008239;28;20412;-83
2023/08/15 00:31:24;;;;;;;3.28;2.97;;;18.40;99.90;;;;;;5019041;28;20037;-82
2023/08/15 00:33:49;;;;;;;5.18;3.40;;;18.40;99.90;;;;;;5014867;28;20045;-82
2023/08/15 00:36:15;;;;;;;3.30;2.85;;;18.30;99.90;;;;;;5022447;28;20028;-83
2023/08/15 00:38:40;;;;;;;4.35;3.28;;;18.30;99.90;;;;;;5016133;28;20018;-83
2023/08/15 00:41:06;;;;;;;3.50;2.92;;;18.30;99.90;;;;;;5026407;28;20109;-83
2023/08/15 00:43:31;;;;;;;5.88;3.40;;;18.30;99.90;;;;;;5032321;28;20033;-84
2023/08/15 00:45:59;;;;;;;4.88;3.30;;;18.30;99.90;;;;;;5019913;28;20022;-83
2023/08/15 00:48:29;;;;;;;16.00;4.55;;;18.20;99.90;;;;;;5022956;28;20014;-83
2023/08/15 00:50:56;;;;;;;6.20;3.90;;;18.20;99.90;;;;;;5023471;28;20399;-82
2023/08/15 00:53:21;;;;;;;5.18;3.60;;;18.20;99.90;;;;;;5031572;28;20032;-83
2023/08/15 00:55:47;;;;;;;11.80;4.05;;;18.20;99.90;;;;;;5020696;28;20025;-83
2023/08/15 00:58:14;;;;;;;7.30;3.08;;;18.10;99.90;;;;;;5029933;28;20021;-83
2023/08/15 01:00:41;;;;;;;5.93;3.65;;;18.20;99.90;;;;;;5026869;28;20094;-83
2023/08/15 01:03:07;;;;;;;4.07;3.25;;;18.20;99.90;;;;;;5021990;28;20033;-84
2023/08/15 01:05:35;;;;;;;6.15;3.67;;;18.20;99.90;;;;;;5030502;28;20036;-83
2023/08/15 01:08:00;;;;;;;4.75;3.75;;;18.20;99.90;;;;;;5032141;28;20025;-83
2023/08/15 01:10:26;;;;;;;4.72;3.55;;;18.20;99.90;;;;;;5030820;28;20248;-83
2023/08/15 01:13:00;;;;;;;4.97;3.85;;;18.20;99.90;;;;;;5027663;28;20033;-84
2023/08/15 01:15:29;;;;;;;4.18;3.10;;;18.10;99.90;;;;;;5034188;28;20494;-83
2023/08/15 01:18:05;;;;;;;7.82;3.30;;;18.10;99.90;;;;;;5032225;28;20109;-84
2023/08/15 01:20:33;;;;;;;3.58;2.97;;;18.10;99.90;;;;;;5031239;28;20642;-83
2023/08/15 01:23:06;;;;;;;3.30;2.65;;;18.10;99.90;;;;;;5027286;28;20460;-83
2023/08/15 01:25:32;;;;;;;5.30;3.35;;;18.10;99.90;;;;;;5034704;28;20048;-84
2023/08/15 01:27:59;;;;;;;5.68;3.55;;;18.00;99.90;;;;;;5032933;28;20022;-83
2023/08/15 01:30:25;;;;;;;3.55;3.25;;;18.00;99.90;;;;;;5024133;28;20078;-82
2023/08/15 01:32:50;;;;;;;5.45;3.40;;;18.00;99.90;;;;;;5020599;28;20038;-82
2023/08/15 01:35:35;;;;;;;4.22;3.35;;;18.00;99.90;;;;;;5035155;28;20033;-84
2023/08/15 01:38:32;;;;;;;4.65;2.88;;;18.00;99.90;;;;;;5032080;28;20121;-84
2023/08/15 01:41:00;;;;;;;5.60;3.75;;;18.00;99.90;;;;;;5016873;28;20463;-83
2023/08/15 01:43:27;;;;;;;6.07;3.88;;;18.00;99.90;;;;;;5026818;28;20022;-83
2023/08/15 01:45:54;;;;;;;4.85;3.53;;;18.00;99.90;;;;;;5027863;28;20439;-83
2023/08/15 01:48:19;;;;;;;4.07;3.67;;;17.90;99.90;;;;;;5025613;28;20014;-83
2023/08/15 01:50:45;;;;;;;6.93;4.05;;;17.90;99.90;;;;;;5027735;28;20079;-82
2023/08/15 01:53:10;;;;;;;4.63;3.50;;;17.90;99.90;;;;;;5028914;28;20030;-82
2023/08/15 01:55:36;;;;;;;8.95;3.92;;;17.90;99.90;;;;;;5021795;28;20060;-83
2023/08/15 01:58:01;;;;;;;6.40;3.70;;;17.80;99.90;;;;;;5023557;28;20120;-83
2023/08/15 02:00:27;;;;;;;4.13;3.53;;;17.90;99.90;;;;;;5023072;28;20046;-83
2023/08/15 02:02:52;;;;;;;9.27;3.50;;;17.80;99.90;;;;;;5028434;28;20032;-83
2023/08/15 02:05:18;;;;;;;4.82;3.70;;;17.80;99.90;;;;;;5032779;28;20044;-83
2023/08/15 02:07:44;;;;;;;6.57;3.83;;;17.80;99.90;;;;;;5028477;28;20120;-83
2023/08/15 02:10:10;;;;;;;14.88;4.53;;;17.80;99.90;;;;;;5026237;28;20032;-83
2023/08/15 02:12:35;;;;;;;4.20;3.70;;;17.80;99.90;;;;;;5024187;28;20105;-83
2023/08/15 02:15:02;;;;;;;4.55;3.67;;;17.70;99.90;;;;;;5021214;28;20485;-83
2023/08/15 02:17:27;;;;;;;5.32;4.50;;;17.70;99.90;;;;;;5025772;28;20469;-83
2023/08/15 02:19:53;;;;;;;5.13;3.90;;;17.70;99.90;;;;;;5027223;28;20091;-82
2023/08/15 02:22:19;;;;;;;4.30;3.72;;;17.70;99.90;;;;;;5028441;28;20072;-83
2023/08/15 02:24:44;;;;;;;11.50;4.70;;;17.70;99.90;;;;;;5027070;28;20108;-83
2023/08/15 02:27:10;;;;;;;7.43;3.83;;;17.70;99.90;;;;;;5029846;28;20033;-82
2023/08/15 02:29:36;;;;;;;6.78;3.55;;;17.60;99.90;;;;;;5027607;28;20018;-83
2023/08/15 02:32:01;;;;;;;5.13;3.45;;;17.70;99.90;;;;;;5022098;28;20037;-82
2023/08/15 02:34:28;;;;;;;5.53;4.03;;;17.70;99.90;;;;;;5025471;28;20401;-83
2023/08/15 02:36:54;;;;;;;4.90;4.40;;;17.60;99.90;;;;;;5024428;28;20022;-83
2023/08/15 02:39:19;;;;;;;6.43;4.22;;;17.60;99.90;;;;;;5019487;28;20018;-83
2023/08/15 02:41:45;;;;;;;4.78;3.90;;;17.60;99.90;;;;;;5024362;28;20068;-84
2023/08/15 02:44:11;;;;;;;7.50;4.43;;;17.60;99.90;;;;;;5029602;28;20018;-83
2023/08/15 02:46:36;;;;;;;7.93;4.32;;;17.60;99.90;;;;;;5028056;28;20469;-82
2023/08/15 02:49:02;;;;;;;6.88;4.00;;;17.60;99.90;;;;;;5027957;28;20061;-83
2023/08/15 02:51:27;;;;;;;5.88;4.57;;;17.60;99.90;;;;;;5027108;28;20049;-83
2023/08/15 02:53:53;;;;;;;9.73;4.65;;;17.60;99.90;;;;;;5026239;28;20021;-84
2023/08/15 02:56:19;;;;;;;6.13;4.72;;;17.60;99.90;;;;;;5018915;28;20032;-82
2023/08/15 02:58:44;;;;;;;6.15;4.65;;;17.60;99.90;;;;;;5026549;28;20067;-83
2023/08/15 03:01:10;;;;;;;5.38;4.50;;;17.60;99.90;;;;;;5018946;28;20050;-84
2023/08/15 03:03:35;;;;;;;6.15;5.50;;;17.60;99.90;;;;;;5026161;28;20037;-83
2023/08/15 03:06:02;;;;;;;5.43;4.93;;;17.60;99.90;;;;;;5017468;28;20029;-83
2023/08/15 03:08:29;;;;;;;5.80;5.22;;;17.60;99.90;;;;;;5034154;28;20026;-83
2023/08/15 03:10:54;;;;;;;9.98;5.00;;;17.60;99.90;;;;;;5018616;28;20017;-84
2023/08/15 03:13:20;;;;;;;6.32;4.68;;;17.60;99.90;;;;;;5027037;28;20037;-84
2023/08/15 03:15:52;;;;;;;4.95;4.47;;;17.60;99.90;;;;;;5025468;28;20017;-83
2023/08/15 03:18:19;;;;;;;4.95;4.55;;;17.60;99.90;;;;;;5029076;28;20022;-83
2023/08/15 03:20:53;;;;;;;8.77;4.40;;;17.60;99.90;;;;;;5024497;28;20030;-82
2023/08/15 03:23:19;;;;;;;5.38;4.43;;;17.60;99.90;;;;;;5029625;28;20030;-83
2023/08/15 03:25:44;;;;;;;7.72;5.22;;;17.50;99.90;;;;;;5026452;28;20057;-82
2023/08/15 03:28:10;;;;;;;4.63;3.92;;;17.60;99.90;;;;;;5029520;28;20028;-83
2023/08/15 03:30:35;;;;;;;5.38;4.28;;;17.60;99.90;;;;;;5026167;28;20026;-83
2023/08/15 03:33:01;;;;;;;4.93;4.40;;;17.60;99.90;;;;;;5019068;28;20128;-83
2023/08/15 03:35:26;;;;;;;6.10;4.57;;;17.60;99.90;;;;;;5025015;28;20091;-83
2023/08/15 03:37:52;;;;;;;8.02;4.82;;;17.60;99.90;;;;;;5022357;28;20014;-83
2023/08/15 03:40:17;;;;;;;6.80;4.28;;;17.60;99.90;;;;;;5027318;28;20169;-82
2023/08/15 03:42:43;;;;;;;6.63;4.53;;;17.60;99.90;;;;;;5022286;28;20651;-83
2023/08/15 03:45:09;;;;;;;5.88;4.82;;;17.60;99.90;;;;;;5025346;28;20595;-83
2023/08/15 03:47:34;;;;;;;5.55;4.78;;;17.70;99.90;;;;;;5026144;28;20093;-83
2023/08/15 03:50:00;;;;;;;5.22;4.72;;;17.70;99.90;;;;;;5020097;28;20497;-83
2023/08/15 03:52:26;;;;;;;8.00;4.25;;;17.70;99.90;;;;;;5024091;28;20477;-83
2023/08/15 03:54:51;;;;;;;7.70;5.07;;;17.70;99.90;;;;;;5018918;28;20044;-83
2023/08/15 03:57:17;;;;;;;7.45;4.72;;;17.70;99.90;;;;;;5022987;28;20030;-83
2023/08/15 03:59:42;;;;;;;5.55;4.97;;;17.80;99.90;;;;;;5013604;28;20034;-83
2023/08/15 04:02:08;;;;;;;7.15;5.28;;;17.80;99.90;;;;;;5024286;28;20029;-82
2023/08/15 04:04:33;;;;;;;6.38;4.82;;;17.80;99.90;;;;;;5020831;28;20021;-83
2023/08/15 04:06:59;;;;;;;7.25;5.82;;;17.80;99.90;;;;;;5023942;28;20057;-82
2023/08/15 04:09:24;;;;;;;7.05;5.55;;;17.90;99.90;;;;;;5032630;28;20481;-84
2023/08/15 04:11:50;;;;;;;6.22;4.95;;;17.90;99.90;;;;;;5018212;28;20045;-83
2023/08/15 04:14:15;;;;;;;8.50;5.45;;;17.90;99.90;;;;;;5027301;28;20021;-83
2023/08/15 04:16:41;;;;;;;6.30;5.38;;;17.90;99.90;;;;;;5025790;28;20146;-83
2023/08/15 04:19:06;;;;;;;6.70;5.00;;;17.90;99.90;;;;;;5018051;28;20018;-83
2023/08/15 04:21:32;;;;;;;8.55;5.80;;;17.90;99.90;;;;;;5034309;28;20053;-84
2023/08/15 04:23:57;;;;;;;7.90;6.03;;;18.00;99.90;;;;;;5030604;28;20022;-84
2023/08/15 04:26:23;;;;;;;7.55;6.53;;;18.00;99.90;;;;;;5023144;28;20032;-84
2023/08/15 04:28:49;;;;;;;6.93;5.90;;;18.00;99.90;;;;;;5030400;28;20010;-84
2023/08/15 04:31:14;;;;;;;9.75;6.68;;;18.10;99.90;;;;;;5023065;28;20033;-83
2023/08/15 04:33:40;;;;;;;6.50;5.80;;;18.10;99.90;;;;;;5043168;28;20005;-84
2023/08/15 04:36:05;;;;;;;11.07;7.28;;;18.10;99.90;;;;;;5040424;28;20026;-84
2023/08/15 04:38:31;;;;;;;8.85;6.85;;;18.10;99.90;;;;;;5030244;28;20018;-84
2023/08/15 04:40:56;;;;;;;7.90;6.75;;;18.20;99.90;;;;;;5033581;28;20392;-83
2023/08/15 04:43:22;;;;;;;7.78;6.50;;;18.20;99.90;;;;;;5024024;28;20093;-84
2023/08/15 04:45:47;;;;;;;7.80;6.05;;;18.20;99.90;;;;;;5023539;28;20414;-83
2023/08/15 04:48:13;;;;;;;7.53;6.72;;;18.30;99.90;;;;;;5030010;28;20573;-82
2023/08/15 04:50:39;;;;;;;7.68;6.85;;;18.30;99.90;;;;;;5020129;28;20574;-83
2023/08/15 04:53:06;;;;;;;7.97;6.80;;;18.30;99.90;;;;;;5021768;28;20029;-83
2023/08/15 04:55:31;;;;;;;11.68;7.05;;;18.30;99.90;;;;;;5029103;28;20025;-84
2023/08/15 04:57:57;;;;;;;9.07;6.93;;;18.40;99.90;;;;;;5031401;28;20049;-83
2023/08/15 05:00:22;;;;;;;6.28;5.68;;;18.40;99.90;;;;;;5037908;28;20742;-84
2023/08/15 05:02:48;;;;;;;8.05;7.30;;;18.40;99.90;;;;;;5031439;28;20072;-84
2023/08/15 05:05:15;;;;;;;8.65;6.68;;;18.40;99.90;;;;;;5030525;28;20037;-83
2023/08/15 05:07:40;;;;;;;8.55;6.75;;;18.50;99.90;;;;;;5029720;28;20030;-83
2023/08/15 05:10:08;;;;;;;7.32;6.63;;;18.50;99.90;;;;;;5027761;28;20022;-84
2023/08/15 05:12:33;;;;;;;8.82;7.78;;;18.50;99.90;;;;;;5032193;28;20116;-83
2023/08/15 05:14:59;;;;;;;7.32;6.63;;;18.60;99.90;;;;;;5027974;28;20038;-83
2023/08/15 05:17:24;;;;;;;12.13;8.48;;;18.60;99.90;;;;;;5028654;28;20090;-83
2023/08/15 05:19:50;;;;;;;8.75;7.85;;;18.70;99.90;;;;;;5023911;28;20031;-84
2023/08/15 05:22:15;;;;;;;8.85;7.95;;;18.70;99.90;;;;;;5028330;28;20022;-84
2023/08/15 05:24:41;;;;;;;8.25;7.40;;;18.80;99.90;;;;;;5022587;28;20106;-83
2023/08/15 05:27:12;;;;;;;10.13;7.47;;;18.90;99.90;;;;;;5028412;28;20561;-83
2023/08/15 05:29:40;;;;;;;12.38;7.88;;;19.00;99.90;;;;;;5020553;28;20025;-84
2023/08/15 05:32:05;;;;;;;12.85;7.80;;;19.10;99.90;;;;;;5030293;28;20037;-83
2023/08/15 05:34:31;;;;;;;17.63;8.55;;;19.20;99.90;;;;;;5024162;28;20106;-83
2023/08/15 05:36:57;;;;;;;8.85;7.72;;;19.30;99.90;;;;;;5026681;28;20537;-83
2023/08/15 05:39:22;;;;;;;12.98;8.32;;;19.40;99.90;;;;;;5022642;28;20687;-84
2023/08/15 05:41:48;;;;;;;10.68;7.40;;;19.40;99.90;;;;;;5028437;28;20453;-83
2023/08/15 05:44:13;;;;;;;11.50;7.75;;;19.60;99.90;;;;;;5027550;28;20022;-84
2023/08/15 05:46:39;;;;;;;11.75;7.30;;;19.60;99.90;;;;;;5025885;28;20036;-83
2023/08/15 05:49:04;;;;;;;8.45;7.65;;;19.80;99.90;;;;;;5034476;28;20361;-83
2023/08/15 05:51:30;;;;;;;7.95;7.18;;;19.90;99.90;;;;;;5022087;28;20029;-84
2023/08/15 05:53:55;;;;;;;9.02;7.18;;;20.00;99.90;;;;;;5027107;28;20025;-82
2023/08/15 05:56:21;;;;;;;10.70;7.60;;;20.10;99.90;;;;;;5024197;28;20018;-83
2023/08/15 05:58:46;;;;;;;8.75;7.63;;;20.20;99.90;;;;;;5026672;28;20031;-84
2023/08/15 06:01:12;;;;;;;10.63;8.18;;;20.30;99.90;;;;;;5026507;28;20448;-84
2023/08/15 06:03:37;;;;;;;11.38;10.18;;;20.40;99.90;;;;;;5021837;28;20013;-83
2023/08/15 06:06:03;;;;;;;10.55;8.05;;;20.50;99.90;;;;;;5026696;28;20081;-84
2023/08/15 06:08:28;;;;;;;10.10;7.43;;;20.50;99.90;;;;;;5021672;28;20827;-84
2023/08/15 06:10:54;;;;;;;11.02;6.70;;;20.60;99.90;;;;;;5024031;28;20033;-83
2023/08/15 06:13:19;;;;;;;7.32;6.43;;;20.60;99.90;;;;;;5021484;28;20113;-84
2023/08/15 06:15:45;;;;;;;11.73;6.90;;;20.70;99.90;;;;;;5024187;28;20029;-84
2023/08/15 06:18:10;;;;;;;10.05;6.53;;;20.70;99.90;;;;;;5027665;28;20020;-84
2023/08/15 06:20:36;;;;;;;7.28;6.15;;;20.70;99.90;;;;;;5021981;28;20030;-83
2023/08/15 06:23:02;;;;;;;7.35;6.53;;;20.80;99.90;;;;;;5024368;28;20029;-83
2023/08/15 06:25:28;;;;;;;6.97;6.28;;;20.80;99.90;;;;;;5021242;28;20018;-84
2023/08/15 06:27:53;;;;;;;8.93;7.25;;;20.80;99.90;;;;;;5023786;28;20409;-83
2023/08/15 06:30:19;;;;;;;8.85;5.95;;;20.80;99.90;;;;;;5022849;28;20047;-84
2023/08/15 06:32:45;;;;;;;8.35;6.20;;;20.80;99.90;;;;;;5020569;28;20075;-84
2023/08/15 06:35:11;;;;;;;6.70;6.10;;;20.90;99.90;;;;;;5022505;28;20022;-84
2023/08/15 06:37:36;;;;;;;8.15;5.97;;;20.90;99.90;;;;;;5021047;28;20026;-84
2023/08/15 06:40:03;;;;;;;7.78;6.50;;;21.00;99.90;;;;;;5022803;28;20535;-84
2023/08/15 06:42:29;;;;;;;8.52;6.22;;;21.00;99.90;;;;;;5021914;28;20622;-83
2023/08/15 06:45:04;;;;;;;7.40;6.28;;;21.10;99.90;;;;;;5022637;28;20112;-84
2023/08/15 06:47:29;;;;;;;7.55;6.25;;;21.20;99.90;;;;;;5023248;28;20025;-83
2023/08/15 06:49:55;;;;;;;6.53;5.55;;;21.30;99.90;;;;;;5023921;28;20427;-84
2023/08/15 06:52:20;;;;;;;6.88;6.25;;;21.40;99.90;;;;;;5024004;28;20017;-85
2023/08/15 06:54:46;;;;;;;6.25;5.55;;;21.50;99.90;;;;;;5020028;28;20040;-84
2023/08/15 06:57:12;;;;;;;6.60;5.82;;;21.60;99.90;;;;;;5023366;28;20056;-83
2023/08/15 06:59:38;;;;;;;9.10;6.00;;;21.80;99.90;;;;;;5021192;28;20033;-84
2023/08/15 07:02:05;;;;;;;7.78;6.15;;;21.90;99.90;;;;;;5022316;28;20041;-83
2023/08/15 07:04:32;;;;;;;6.13;5.50;;;22.10;99.90;;;;;;5020254;28;20017;-83
2023/08/15 07:06:59;;;;;;;9.77;5.20;;;22.20;99.90;;;;;;5022772;28;20033;-83
2023/08/15 07:09:27;;;;;;;9.25;5.43;;;22.40;99.90;;;;;;5022743;28;20366;-84
2023/08/15 07:11:53;;;;;;;10.70;5.38;;;22.50;99.90;;;;;;5021346;28;20028;-84
2023/08/15 07:14:19;;;;;;;8.10;5.03;;;22.50;99.90;;;;;;5022477;28;20093;-84
2023/08/15 07:16:46;;;;;;;5.85;4.10;;;22.50;99.90;;;;;;5021587;28;20079;-85
2023/08/15 07:19:11;;;;;;;9.30;4.78;;;22.50;99.90;;;;;;5014025;28;20093;-83
2023/08/15 07:21:37;;;;;;;5.28;4.03;;;22.60;99.90;;;;;;5025113;28;20064;-84
2023/08/15 07:24:03;;;;;;;7.03;4.80;;;22.50;99.90;;;;;;5012768;28;20551;-84
2023/08/15 07:26:29;;;;;;;4.93;4.35;;;22.50;99.90;;;;;;5019592;28;20036;-83
2023/08/15 07:28:54;;;;;;;8.98;5.40;;;22.50;99.90;;;;;;5032555;28;20054;-82
2023/08/15 07:31:20;;;;;;;8.45;4.68;;;22.50;99.90;;;;;;5024170;28;20111;-85
2023/08/15 07:33:45;;;;;;;7.03;4.32;;;22.60;99.90;;;;;;5022400;28;20017;-84
2023/08/15 07:36:11;;;;;;;5.18;4.30;;;22.60;99.90;;;;;;5020525;28;20036;-84
2023/08/15 07:38:37;;;;;;;6.82;4.97;;;22.60;99.90;;;;;;5028295;28;20028;-83
2023/08/15 07:41:03;;;;;;;11.93;5.00;;;22.60;99.90;;;;;;5021722;28;20034;-83
2023/08/15 07:43:28;;;;;;;7.43;5.15;;;22.60;99.90;;;;;;5028475;28;20030;-85
2023/08/15 07:45:54;;;;;;;5.65;4.95;;;22.60;99.90;;;;;;5020270;28;20416;-83
2023/08/15 07:48:19;;;;;;;6.45;4.60;;;22.60;99.90;;;;;;5027539;28;20659;-84
2023/08/15 07:50:45;;;;;;;5.28;4.43;;;22.60;99.90;;;;;;5021046;28;20485;-84
2023/08/15 07:53:12;;;;;;;6.15;5.00;;;22.60;99.90;;;;;;5020196;28;20030;-85
2023/08/15 07:55:38;;;;;;;7.35;4.43;;;22.60;99.90;;;;;;5025303;28;20127;-84
2023/08/15 07:58:03;;;;;;;6.53;5.63;;;22.60;99.90;;;;;;5013776;28;20543;-83
2023/08/15 08:00:29;;;;;;;7.95;5.07;;;22.60;99.90;;;;;;5025899;28;20038;-84
2023/08/15 08:02:54;;;;;;;5.68;5.18;;;22.50;99.90;;;;;;5019167;28;20033;-84
2023/08/15 08:05:20;;;;;;;6.72;5.10;;;22.50;99.90;;;;;;5024412;28;20030;-83
2023/08/15 08:07:46;;;;;;;9.48;5.22;;;22.50;99.90;;;;;;5014504;28;20025;-84
2023/08/15 08:10:11;;;;;;;6.50;4.25;;;22.50;99.90;;;;;;5018757;28;20417;-84
2023/08/15 08:12:37;;;;;;;7.03;5.07;;;22.40;99.90;;;;;;5025635;28;20048;-83
2023/08/15 08:15:04;;;;;;;6.43;5.40;;;22.40;99.90;;;;;;5019786;28;20030;-83
2023/08/15 08:17:29;;;;;;;8.60;5.07;;;22.40;99.90;;;;;;5023963;28;20017;-85
2023/08/15 08:19:55;;;;;;;6.40;5.00;;;22.30;99.90;;;;;;5023045;28;20033;-86
2023/08/15 08:22:20;;;;;;;5.20;4.63;;;22.30;99.90;;;;;;5017183;28;20079;-85
2023/08/15 08:24:48;;;;;;;6.57;5.10;;;22.20;99.90;;;;;;5018333;28;20101;-84
2023/08/15 08:27:14;;;;;;;11.13;5.03;;;22.20;99.90;;;;;;5018986;28;20022;-86
2023/08/15 08:29:40;;;;;;;11.32;5.57;;;22.10;99.90;;;;;;5018226;28;20068;-84
2023/08/15 08:32:05;;;;;;;6.43;5.10;;;22.10;99.90;;;;;;5016793;28;20113;-82
2023/08/15 08:34:31;;;;;;;10.30;5.50;;;22.10;99.90;;;;;;5012854;28;20022;-82
2023/08/15 08:36:56;;;;;;;6.63;5.60;;;22.00;99.90;;;;;;5020421;28;20033;-83
2023/08/15 08:39:22;;;;;;;6.20;4.97;;;22.00;99.90;;;;;;5011515;28;20045;-83
2023/08/15 08:41:48;;;;;;;6.70;5.15;;;21.90;99.90;;;;;;5020992;28;20549;-83
2023/08/15 08:44:16;;;;;;;5.47;4.97;;;21.80;99.90;;;;;;5019759;28;20053;-84
2023/08/15 08:46:42;;;;;;;9.27;6.10;;;21.80;99.90;;;;;;5016222;28;20014;-83
2023/08/15 08:49:09;;;;;;;11.25;6.15;;;21.80;99.90;;;;;;5022008;28;20022;-83
2023/08/15 08:51:35;;;;;;;9.48;6.00;;;21.80;99.90;;;;;;5014438;28;20132;-83
2023/08/15 08:54:00;;;;;;;10.80;6.13;;;21.70;99.90;;;;;;5043750;28;20018;-82
2023/08/15 08:56:29;;;;;;;6.18;5.57;;;21.70;99.90;;;;;;5040891;28;20022;-83
2023/08/15 08:59:08;;;;;;;6.35;5.75;;;21.70;99.90;;;;;;5035044;28;20038;-83
2023/08/15 09:01:36;;;;;;;12.82;5.45;;;21.70;99.90;;;;;;5026645;28;20068;-83
2023/08/15 09:04:02;;;;;;;6.90;6.20;;;21.70;99.90;;;;;;5015303;28;20030;-84
2023/08/15 09:06:28;;;;;;;7.97;6.40;;;21.70;99.90;;;;;;5020940;28;20489;-83
2023/08/15 09:08:54;;;;;;;7.55;6.22;;;21.60;99.90;;;;;;5014564;28;20022;-83
2023/08/15 09:11:20;;;;;;;7.85;5.85;;;21.60;99.90;;;;;;5026688;28;20021;-83
2023/08/15 09:13:50;;;;;;;10.98;6.50;;;21.60;99.90;;;;;;5014933;28;20041;-84
2023/08/15 09:16:16;;;;;;;8.73;6.47;;;21.60;99.90;;;;;;5018657;28;20018;-84
2023/08/15 09:18:42;;;;;;;7.43;5.93;;;21.70;99.90;;;;;;5020677;28;20029;-83
2023/08/15 09:21:08;;;;;;;12.80;6.55;;;21.80;99.90;;;;;;5023948;28;20093;-83
2023/08/15 09:23:34;;;;;;;10.05;6.50;;;21.80;99.90;;;;;;5015883;28;20105;-83
2023/08/15 09:26:13;;;;;;;6.80;6.10;;;21.90;99.90;;;;;;5011709;28;20472;-82
2023/08/15 09:28:41;;;;;;;6.97;6.28;;;22.10;99.90;;;;;;5014956;28;20503;-83
2023/08/15 09:31:08;;;;;;;10.52;6.80;;;22.20;99.90;;;;;;5026973;28;20033;-83
2023/08/15 09:33:35;;;;;;;9.10;6.05;;;22.30;99.90;;;;;;5022521;28;20024;-83
2023/08/15 09:36:03;;;;;;;8.38;5.97;;;22.50;99.90;;;;;;5021439;28;20057;-84
2023/08/15 09:38:29;;;;;;;7.13;5.72;;;22.60;99.90;;;;;;5028268;28;20049;-85
2023/08/15 09:40:55;;;;;;;11.32;5.50;;;22.60;99.90;;;;;;5023301;28;20054;-85
2023/08/15 09:43:21;;;;;;;8.30;7.15;;;22.70;99.90;;;;;;5026894;28;20404;-84
2023/08/15 09:45:48;;;;;;;6.70;5.28;;;22.80;99.90;;;;;;5020387;28;20018;-84
2023/08/15 09:48:14;;;;;;;7.70;5.40;;;22.90;99.90;;;;;;5021395;28;20034;-81
2023/08/15 09:50:41;;;;;;;7.85;4.88;;;23.00;99.90;;;;;;5017732;28;20038;-84
2023/08/15 09:53:08;;;;;;;6.60;5.15;;;22.90;99.90;;;;;;5020951;28;20488;-84
2023/08/15 09:55:36;;;;;;;6.30;4.22;;;23.00;99.90;;;;;;5016849;28;20034;-85
2023/08/15 09:58:03;;;;;;;11.60;4.57;;;23.00;99.90;;;;;;5014867;28;20033;-85
2023/08/15 10:00:30;;;;;;;9.00;4.80;;;23.10;99.90;;;;;;5019590;28;20149;-84
2023/08/15 10:03:08;;;;;;;6.07;4.28;;;23.10;99.90;;;;;;5011113;28;20080;-85
2023/08/15 10:05:37;;;;;;;4.63;3.97;;;23.10;99.90;;;;;;5015908;28;20030;-85
2023/08/15 10:08:03;;;;;;;7.32;4.35;;;23.20;99.90;;;;;;5019401;28;20053;-86
2023/08/15 10:10:33;;;;;;;5.32;3.83;;;23.20;99.90;;;;;;5013021;28;20050;-85
2023/08/15 10:12:59;;;;;;;5.78;4.00;;;23.30;99.90;;;;;;5023902;28;20121;-85
2023/08/15 10:15:26;;;;;;;4.47;3.70;;;23.30;99.90;;;;;;5014488;28;20277;-86
2023/08/15 10:17:52;;;;;;;3.92;3.53;;;23.30;99.90;;;;;;5022993;28;20477;-86
2023/08/15 10:20:19;;;;;;;10.32;7.05;;;23.40;99.90;;;;;;5021509;28;20030;-85
2023/08/15 10:22:50;;;;;;;6.78;4.70;;;23.50;99.90;;;;;;5022602;28;20441;-84
2023/08/15 10:25:22;;;;;;;5.60;4.32;;;23.50;99.90;;;;;;5022042;28;20053;-82
2023/08/15 10:27:53;;;;;;;6.00;4.50;;;23.50;99.90;;;;;;5022952;28;20108;-86
2023/08/15 10:30:47;;;;;;;5.28;4.50;;;23.60;99.90;;;;;;5022310;28;20053;-86
2023/08/15 10:33:15;;;;;;;5.68;4.45;;;23.60;99.90;;;;;;5011213;28;20032;-86
2023/08/15 10:35:56;;;;;;;7.60;5.28;;;23.60;99.90;;;;;;5019795;28;20030;-86
2023/08/15 10:38:26;;;;;;;5.60;4.40;;;23.60;99.90;;;;;;5023788;28;20167;-85
2023/08/15 10:40:59;;;;;;;4.32;3.90;;;23.70;99.90;;;;;;5022694;28;20398;-86
2023/08/15 10:43:27;;;;;;;6.68;4.93;;;23.70;99.90;;;;;;5022605;28;20017;-83
2023/08/15 10:45:56;;;;;;;5.53;4.20;;;23.80;99.90;;;;;;5023587;28;20041;-87
2023/08/15 10:48:50;;;;;;;5.32;3.58;;;23.90;99.90;;;;;;5022682;28;20021;-84
2023/08/15 10:51:30;;;;;;;6.60;4.65;;;23.90;99.90;;;;;;5015668;28;20037;-84
2023/08/15 10:54:04;;;;;;;4.13;3.72;;;24.00;99.90;;;;;;5026603;28;20034;-86
2023/08/15 10:56:35;;;;;;;5.88;3.97;;;24.00;99.90;;;;;;5019875;28;20461;-84
2023/08/15 10:59:12;;;;;;;6.03;4.13;;;24.00;99.90;;;;;;5024194;28;20063;-86
2023/08/15 11:01:40;;;;;;;4.53;4.13;;;24.00;99.90;;;;;;5014397;28;20042;-86
2023/08/15 11:04:08;;;;;;;12.15;4.18;;;24.10;99.90;;;;;;5020154;28;20103;-85
2023/08/15 11:06:46;;;;;;;5.75;4.95;;;24.20;99.90;;;;;;5019576;28;20668;-85
2023/08/15 11:09:12;;;;;;;6.47;4.93;;;24.20;99.90;;;;;;5021566;28;20087;-86
2023/08/15 11:11:39;;;;;;;5.25;4.43;;;24.20;99.90;;;;;;5019440;28;20022;-86
2023/08/15 11:14:13;;;;;;;5.85;4.25;;;24.20;99.90;;;;;;5021374;28;20132;-85
2023/08/15 11:16:38;;;;;;;7.18;5.13;;;24.20;99.90;;;;;;5018150;28;20021;-84
2023/08/15 11:19:04;;;;;;;5.93;4.70;;;24.20;99.90;;;;;;5016488;28;20029;-87
2023/08/15 11:21:29;;;;;;;6.15;4.97;;;24.30;99.90;;;;;;5021967;28;20025;-84
2023/08/15 11:24:01;;;;;;;5.22;4.65;;;24.40;99.90;;;;;;5022903;28;20022;-86
2023/08/15 11:26:26;;;;;;;7.32;5.35;;;24.50;99.90;;;;;;5023237;28;20060;-84
2023/08/15 11:28:52;;;;;;;6.05;4.47;;;24.70;99.90;;;;;;5022294;28;20041;-83
2023/08/15 11:31:18;;;;;;;8.45;4.90;;;24.80;99.90;;;;;;5022686;28;20100;-83
2023/08/15 11:33:44;;;;;;;7.10;5.35;;;24.80;99.90;;;;;;5020332;28;20607;-86
2023/08/15 11:36:10;;;;;;;5.57;5.05;;;24.80;99.90;;;;;;5016481;28;20113;-85
2023/08/15 11:38:37;;;;;;;6.00;5.40;;;24.80;99.90;;;;;;5020095;28;20036;-83
2023/08/15 11:41:04;;;;;;;6.30;5.43;;;24.80;99.90;;;;;;5022854;28;20163;-84
2023/08/15 11:43:30;;;;;;;5.20;4.75;;;24.80;99.90;;;;;;5022380;28;20021;-85
2023/08/15 11:46:00;;;;;;;5.95;5.40;;;24.90;99.90;;;;;;5023519;28;20029;-83
2023/08/15 11:48:25;;;;;;;5.70;5.20;;;24.90;99.90;;;;;;5020168;28;20022;-83
2023/08/15 11:50:51;;;;;;;6.43;5.80;;;24.80;99.90;;;;;;5018119;28;20102;-84
2023/08/15 11:53:18;;;;;;;6.40;5.85;;;24.80;99.90;;;;;;5023309;28;20033;-85
2023/08/15 11:55:46;;;;;;;6.18;5.53;;;24.70;99.90;;;;;;5016947;28;20025;-85
2023/08/15 11:58:22;;;;;;;9.13;6.05;;;24.60;99.90;;;;;;5024114;28;20034;-86
2023/08/15 12:00:48;;;;;;;6.65;6.05;;;24.50;99.90;;;;;;5022710;28;20046;-85
2023/08/15 12:03:14;;;;;;;11.55;7.60;;;24.30;99.90;;;;;;5010502;28;20028;-85
2023/08/15 12:05:44;;;;;;;8.90;8.10;;;24.20;99.90;;;;;;5020847;28;20029;-86
2023/08/15 12:08:12;;;;;;;10.10;8.75;;;24.00;99.90;;;;;;5010258;28;20037;-86
2023/08/15 12:10:38;;;;;;;10.10;9.07;;;24.00;99.90;;;;;;5012517;28;20029;-87
2023/08/15 12:13:04;;;;;;;11.10;10.20;;;24.10;99.90;;;;;;5019993;28;20022;-86
2023/08/15 12:15:29;;;;;;;14.38;12.88;;;24.10;99.90;;;;;;5018019;28;20121;-86
2023/08/15 12:17:55;;;;;;;14.48;13.18;;;24.10;99.90;;;;;;5021909;28;20434;-85
2023/08/15 12:20:20;;;;;;;13.25;11.93;;;23.90;99.90;;;;;;5010520;28;20132;-86
2023/08/15 12:22:46;;;;;;;16.13;14.55;;;23.90;99.90;;;;;;5022670;28;20032;-87
2023/08/15 12:25:11;;;;;;;15.20;12.38;;;23.90;99.90;;;;;;5022188;28;20022;-87
2023/08/15 12:27:37;;;;;;;17.85;15.70;;;23.90;99.90;;;;;;5015870;28;20081;-85
2023/08/15 12:30:04;;;;;;;16.40;14.65;;;23.80;99.90;;;;;;5019994;28;20060;-87
2023/08/15 12:32:30;;;;;;;15.32;13.75;;;23.70;99.90;;;;;;5025841;28;20564;-84
2023/08/15 12:34:56;;;;;;;19.48;14.18;;;23.70;99.90;;;;;;5025325;28;20120;-84
2023/08/15 12:37:22;;;;;;;17.30;13.45;;;23.70;99.90;;;;;;5020744;28;20025;-86
2023/08/15 12:39:48;;;;;;;14.90;13.40;;;23.70;99.90;;;;;;5015458;28;20061;-85
2023/08/15 12:42:14;;;;;;;15.23;11.45;;;23.70;99.90;;;;;;5022495;28;20049;-87
2023/08/15 12:44:42;;;;;;;14.38;12.73;;;23.80;99.90;;;;;;5016160;28;20477;-86